Time;durP1;ratioP1;P1;durP2;ratioP2;P2;SDS_P1;SDS_P2;PMS_P1;PMS_P2;Temp;Humidity;BMP_temperature;BMP_pressure;BME280_temperature;BME280_humidity;BME280_pressure;Samples;Min_cycle;Max_cycle;Signal;HPM_P1;HPM_P2
2023/05/20 00:00:48;;;;;;;4.88;2.70;;;11.60;99.90;;;;;;5095566;28;20039;-71
2023/05/20 00:03:14;;;;;;;6.70;2.60;;;11.60;99.90;;;;;;5095930;28;20040;-70
2023/05/20 00:05:40;;;;;;;4.75;2.67;;;11.70;99.90;;;;;;5096331;28;20116;-71
2023/05/20 00:08:08;;;;;;;6.93;3.85;;;11.60;99.90;;;;;;5096005;28;20459;-71
2023/05/20 00:10:34;;;;;;;6.82;2.53;;;11.60;99.90;;;;;;5095987;28;20040;-71
2023/05/20 00:13:00;;;;;;;6.35;2.80;;;11.60;99.90;;;;;;5095875;28;20413;-71
2023/05/20 00:15:25;;;;;;;6.07;2.88;;;11.60;99.90;;;;;;5095936;28;20040;-71
2023/05/20 00:17:51;;;;;;;10.48;3.15;;;11.60;99.90;;;;;;5095530;28;20081;-71
2023/05/20 00:20:17;;;;;;;7.35;2.95;;;11.60;99.90;;;;;;5096120;28;20105;-70
2023/05/20 00:22:42;;;;;;;6.68;2.70;;;11.60;99.90;;;;;;5095740;28;20043;-71
2023/05/20 00:25:09;;;;;;;5.00;2.58;;;11.60;99.90;;;;;;5095826;28;20047;-71
2023/05/20 00:27:35;;;;;;;6.07;2.55;;;11.60;99.90;;;;;;5095565;28;20044;-70
2023/05/20 00:30:01;;;;;;;4.03;2.35;;;11.60;99.90;;;;;;5095662;28;20471;-71
2023/05/20 00:32:26;;;;;;;6.30;2.70;;;11.60;99.90;;;;;;5094589;28;20040;-71
2023/05/20 00:34:59;;;;;;;5.80;2.83;;;11.70;99.90;;;;;;5095248;28;20040;-71
2023/05/20 00:37:25;;;;;;;10.10;3.10;;;11.70;99.90;;;;;;5095433;28;20047;-71
2023/05/20 00:39:51;;;;;;;6.72;2.70;;;11.70;99.90;;;;;;5095376;28;20122;-72
2023/05/20 00:42:27;;;;;;;9.73;3.25;;;11.70;99.90;;;;;;5095259;28;20136;-72
2023/05/20 00:44:53;;;;;;;5.25;2.95;;;11.70;99.90;;;;;;5095343;28;20348;-72
2023/05/20 00:47:24;;;;;;;8.03;3.30;;;11.70;99.90;;;;;;5095243;28;20085;-71
2023/05/20 00:49:50;;;;;;;7.90;3.17;;;11.70;99.90;;;;;;5095165;28;20089;-70
2023/05/20 00:52:18;;;;;;;8.70;3.03;;;11.70;99.90;;;;;;5095434;28;20032;-71
2023/05/20 00:54:44;;;;;;;6.43;3.53;;;11.60;99.90;;;;;;5094995;28;20043;-71
2023/05/20 00:57:10;;;;;;;4.57;2.63;;;11.70;99.90;;;;;;5095280;28;20388;-72
2023/05/20 00:59:37;;;;;;;8.97;3.57;;;11.70;99.90;;;;;;5094974;28;20464;-71
2023/05/20 01:02:06;;;;;;;6.53;2.95;;;11.70;99.90;;;;;;5095221;28;20096;-70
2023/05/20 01:04:32;;;;;;;4.80;2.80;;;11.80;99.90;;;;;;5094894;28;20031;-72
2023/05/20 01:07:01;;;;;;;6.65;3.00;;;11.70;99.90;;;;;;5095068;28;20376;-71
2023/05/20 01:09:27;;;;;;;6.72;2.50;;;11.70;99.90;;;;;;5094764;28;20111;-71
2023/05/20 01:12:03;;;;;;;5.25;2.50;;;11.70;99.90;;;;;;5095017;28;20071;-71
2023/05/20 01:14:34;;;;;;;5.60;2.97;;;11.70;99.90;;;;;;5094773;28;20059;-70
2023/05/20 01:17:08;;;;;;;6.55;3.03;;;11.70;99.90;;;;;;5094653;28;20040;-71
2023/05/20 01:19:44;;;;;;;7.47;3.15;;;11.70;99.90;;;;;;5094570;28;20460;-70
2023/05/20 01:22:11;;;;;;;4.65;2.45;;;11.70;99.90;;;;;;5094535;28;20395;-71
2023/05/20 01:24:47;;;;;;;6.95;2.70;;;12.00;99.90;;;;;;5094242;28;20456;-72
2023/05/20 01:27:15;;;;;;;4.68;2.70;;;11.70;99.90;;;;;;5094551;28;20091;-70
2023/05/20 01:29:43;;;;;;;6.78;3.08;;;11.70;99.90;;;;;;5094431;28;20388;-70
2023/05/20 01:32:14;;;;;;;6.47;2.67;;;12.00;99.90;;;;;;5094416;28;20043;-71
2023/05/20 01:34:41;;;;;;;7.47;2.78;;;11.70;99.90;;;;;;5094258;28;20040;-71
2023/05/20 01:37:07;;;;;;;4.38;2.50;;;11.70;99.90;;;;;;5094302;28;20036;-71
2023/05/20 01:39:36;;;;;;;6.82;2.42;;;11.70;99.90;;;;;;5094038;28;20462;-71
2023/05/20 01:42:03;;;;;;;5.00;2.90;;;11.60;99.90;;;;;;5093897;28;20476;-71
2023/05/20 01:44:29;;;;;;;3.92;2.67;;;11.70;99.90;;;;;;5094175;28;20255;-71
2023/05/20 01:46:55;;;;;;;6.10;2.60;;;11.60;99.90;;;;;;5094226;28;20032;-71
2023/05/20 01:49:20;;;;;;;9.52;3.03;;;11.70;99.90;;;;;;5094179;28;20044;-71
2023/05/20 01:51:46;;;;;;;6.07;2.50;;;11.70;99.90;;;;;;5094239;28;20040;-71
2023/05/20 01:54:12;;;;;;;5.50;2.92;;;11.70;99.90;;;;;;5094055;28;20043;-70
2023/05/20 01:56:37;;;;;;;4.05;2.80;;;11.70;99.90;;;;;;5094012;28;20376;-70
2023/05/20 01:59:03;;;;;;;6.50;2.58;;;11.80;99.90;;;;;;5094094;28;20117;-72
2023/05/20 02:01:29;;;;;;;4.82;2.67;;;11.60;99.90;;;;;;5093979;28;20466;-72
2023/05/20 02:03:54;;;;;;;3.90;2.30;;;11.60;99.90;;;;;;5093830;28;20371;-70
2023/05/20 02:06:20;;;;;;;5.60;2.67;;;11.60;99.90;;;;;;5093666;28;20102;-71
2023/05/20 02:08:45;;;;;;;9.15;2.80;;;11.60;99.90;;;;;;5093885;28;20039;-71
2023/05/20 02:11:11;;;;;;;4.50;2.30;;;11.60;99.90;;;;;;5094111;28;20085;-72
2023/05/20 02:13:38;;;;;;;5.05;2.60;;;11.70;99.90;;;;;;5093872;28;20493;-71
2023/05/20 02:16:04;;;;;;;4.97;2.55;;;11.60;99.90;;;;;;5093761;28;20160;-71
2023/05/20 02:18:31;;;;;;;8.52;2.95;;;11.60;99.90;;;;;;5093697;28;20062;-70
2023/05/20 02:21:02;;;;;;;6.03;2.80;;;11.60;99.90;;;;;;5094103;28;20040;-71
2023/05/20 02:23:28;;;;;;;7.07;3.00;;;11.60;99.90;;;;;;5093694;28;20077;-70
2023/05/20 02:25:54;;;;;;;5.90;2.60;;;11.60;99.90;;;;;;5099989;28;20032;-71
2023/05/20 02:28:19;;;;;;;4.72;2.97;;;11.50;99.90;;;;;;5100086;28;20044;-71
2023/05/20 02:30:45;;;;;;;7.85;2.80;;;11.70;99.90;;;;;;5100376;28;20123;-71
2023/05/20 02:33:12;;;;;;;4.30;2.42;;;11.50;99.90;;;;;;5100356;28;20093;-72
2023/05/20 02:35:38;;;;;;;5.10;2.60;;;11.50;99.90;;;;;;5100358;28;20044;-71
2023/05/20 02:38:04;;;;;;;5.07;2.75;;;11.50;99.90;;;;;;5100680;28;20067;-71
2023/05/20 02:40:30;;;;;;;5.47;2.90;;;11.50;99.90;;;;;;5100536;28;20080;-70
2023/05/20 02:42:57;;;;;;;6.78;2.63;;;11.60;99.90;;;;;;5100208;28;20547;-71
2023/05/20 02:45:22;;;;;;;8.35;2.60;;;11.50;99.90;;;;;;5100229;28;20051;-71
2023/05/20 02:47:48;;;;;;;7.22;2.60;;;11.40;99.90;;;;;;5100188;28;20451;-71
2023/05/20 02:50:13;;;;;;;5.05;2.35;;;11.40;99.90;;;;;;5100270;28;20047;-70
2023/05/20 02:52:41;;;;;;;3.30;2.17;;;11.40;99.90;;;;;;5100603;28;20192;-72
2023/05/20 02:55:07;;;;;;;4.38;2.30;;;11.40;99.90;;;;;;5100435;28;20153;-70
2023/05/20 02:57:36;;;;;;;5.45;2.50;;;11.40;99.90;;;;;;5100069;28;20044;-70
2023/05/20 03:00:04;;;;;;;4.30;2.20;;;11.40;99.90;;;;;;5100026;28;20494;-71
2023/05/20 03:02:30;;;;;;;3.13;2.40;;;11.30;99.90;;;;;;5099983;28;20051;-70
2023/05/20 03:04:55;;;;;;;5.90;2.50;;;11.30;99.90;;;;;;5099925;28;20135;-70
2023/05/20 03:07:21;;;;;;;4.88;2.33;;;11.20;99.90;;;;;;5100109;28;20087;-71
2023/05/20 03:09:47;;;;;;;5.65;2.53;;;11.20;99.90;;;;;;5099750;28;20031;-70
2023/05/20 03:12:13;;;;;;;7.22;2.25;;;11.20;99.90;;;;;;5100050;28;20048;-72
2023/05/20 03:14:38;;;;;;;4.05;2.72;;;11.20;99.90;;;;;;5099819;28;20491;-71
2023/05/20 03:17:04;;;;;;;5.45;2.38;;;11.20;99.90;;;;;;5099908;28;20048;-72
2023/05/20 03:19:30;;;;;;;6.22;2.22;;;11.20;99.90;;;;;;5099843;28;20040;-71
2023/05/20 03:21:56;;;;;;;5.28;2.25;;;11.20;99.90;;;;;;5099921;28;20039;-71
2023/05/20 03:24:22;;;;;;;5.18;2.30;;;11.20;99.90;;;;;;5099746;28;20036;-71
2023/05/20 03:26:48;;;;;;;5.13;2.22;;;11.20;99.90;;;;;;5100016;28;20055;-71
2023/05/20 03:29:13;;;;;;;2.70;2.17;;;11.20;99.90;;;;;;5099546;28;20043;-70
2023/05/20 03:31:39;;;;;;;4.30;2.22;;;11.10;99.90;;;;;;5099480;28;20119;-71
2023/05/20 03:34:05;;;;;;;5.80;2.65;;;11.10;99.90;;;;;;5099846;28;20039;-71
2023/05/20 03:36:31;;;;;;;3.80;2.50;;;11.10;99.90;;;;;;5096523;28;20036;-71
2023/05/20 03:38:56;;;;;;;3.97;2.40;;;11.10;99.90;;;;;;5096527;28;20039;-71
2023/05/20 03:41:22;;;;;;;4.65;2.40;;;11.00;99.90;;;;;;5096545;28;20036;-71
2023/05/20 03:43:47;;;;;;;3.75;2.00;;;11.00;99.90;;;;;;5096583;28;20075;-72
2023/05/20 03:46:13;;;;;;;4.30;2.50;;;11.10;99.90;;;;;;5096141;28;20371;-70
2023/05/20 03:48:39;;;;;;;3.50;2.00;;;11.00;99.90;;;;;;5096662;28;20028;-70
2023/05/20 03:51:05;;;;;;;11.23;2.85;;;10.80;99.90;;;;;;5096770;28;20032;-71
2023/05/20 03:53:33;;;;;;;7.65;2.28;;;10.80;99.90;;;;;;5096378;28;20478;-71
2023/05/20 03:55:59;;;;;;;4.85;2.30;;;10.80;99.90;;;;;;5095968;28;20040;-71
2023/05/20 03:58:25;;;;;;;5.35;2.28;;;10.80;99.90;;;;;;5096166;28;20364;-71
2023/05/20 04:00:50;;;;;;;3.45;2.17;;;10.70;99.90;;;;;;5096171;28;20048;-71
2023/05/20 04:03:16;;;;;;;4.00;2.10;;;10.70;99.90;;;;;;5096119;28;20044;-71
2023/05/20 04:05:42;;;;;;;4.10;2.17;;;10.70;99.90;;;;;;5078098;28;20047;-70
2023/05/20 04:08:08;;;;;;;3.33;2.03;;;10.60;99.90;;;;;;5096599;28;20039;-71
2023/05/20 04:10:34;;;;;;;3.42;2.25;;;10.60;99.90;;;;;;5096248;28;20482;-71
2023/05/20 04:13:00;;;;;;;2.75;2.03;;;10.60;99.90;;;;;;5096077;28;20122;-71
2023/05/20 04:15:28;;;;;;;4.03;2.33;;;10.60;99.90;;;;;;5095867;28;20431;-71
2023/05/20 04:17:54;;;;;;;5.63;2.10;;;10.60;99.90;;;;;;5096167;28;20044;-71
2023/05/20 04:20:20;;;;;;;2.90;2.10;;;11.00;99.90;;;;;;5095796;28;20040;-71
2023/05/20 04:22:46;;;;;;;3.50;2.13;;;10.60;99.90;;;;;;5095948;28;20372;-71
2023/05/20 04:25:12;;;;;;;10.38;2.17;;;10.70;99.90;;;;;;5095464;28;20509;-70
2023/05/20 04:27:38;;;;;;;3.85;2.30;;;10.70;99.90;;;;;;5095500;28;20036;-70
2023/05/20 04:30:05;;;;;;;4.05;2.33;;;10.70;99.90;;;;;;5095682;28;20122;-70
2023/05/20 04:32:33;;;;;;;4.53;2.55;;;10.70;99.90;;;;;;5095066;28;20048;-70
2023/05/20 04:35:00;;;;;;;4.75;2.38;;;10.70;99.90;;;;;;5095531;28;20046;-70
2023/05/20 04:37:27;;;;;;;2.53;1.75;;;10.70;99.90;;;;;;5094184;28;20066;-71
2023/05/20 04:39:52;;;;;;;3.87;2.23;;;10.70;99.90;;;;;;5095404;28;20160;-71
2023/05/20 04:42:20;;;;;;;8.55;2.45;;;10.70;99.90;;;;;;5095409;28;20080;-70
2023/05/20 04:44:46;;;;;;;3.67;1.92;;;10.80;99.90;;;;;;5094314;28;20109;-71
2023/05/20 04:47:13;;;;;;;5.32;2.10;;;10.80;99.90;;;;;;5093974;28;20353;-70
2023/05/20 04:49:38;;;;;;;2.80;1.77;;;10.90;99.90;;;;;;5095813;28;20111;-70
2023/05/20 04:52:04;;;;;;;3.95;1.75;;;10.90;99.90;;;;;;5095389;28;20668;-70
2023/05/20 04:54:31;;;;;;;2.55;1.58;;;10.90;99.90;;;;;;5094000;28;20040;-71
2023/05/20 04:56:57;;;;;;;3.17;2.00;;;10.90;99.90;;;;;;5095090;28;20118;-70
2023/05/20 04:59:23;;;;;;;5.27;1.80;;;11.00;99.90;;;;;;5094911;28;20043;-70
2023/05/20 05:01:49;;;;;;;3.70;1.52;;;11.10;99.90;;;;;;5095055;28;20040;-71
2023/05/20 05:04:14;;;;;;;5.70;1.98;;;11.20;99.90;;;;;;5095356;28;20044;-70
2023/05/20 05:06:40;;;;;;;3.08;1.88;;;11.20;99.90;;;;;;5095096;28;20510;-70
2023/05/20 05:09:06;;;;;;;2.58;1.60;;;11.20;99.90;;;;;;5095049;28;20115;-70
2023/05/20 05:11:32;;;;;;;5.18;1.58;;;11.20;99.90;;;;;;5094814;28;20039;-71
2023/05/20 05:13:58;;;;;;;4.40;1.55;;;11.30;99.90;;;;;;5094754;28;20371;-71
2023/05/20 05:16:24;;;;;;;4.35;1.63;;;11.30;99.90;;;;;;5094702;28;20062;-71
2023/05/20 05:18:49;;;;;;;3.30;1.58;;;11.40;99.90;;;;;;5094388;28;20460;-70
2023/05/20 05:21:15;;;;;;;2.10;1.50;;;11.30;99.90;;;;;;5094948;28;20043;-70
2023/05/20 05:23:44;;;;;;;2.78;1.40;;;11.50;99.90;;;;;;5094637;28;20051;-70
2023/05/20 05:26:09;;;;;;;4.10;1.60;;;11.50;99.90;;;;;;5094520;28;20040;-70
2023/05/20 05:28:35;;;;;;;3.58;1.73;;;11.50;99.90;;;;;;5094598;28;20044;-71
2023/05/20 05:31:01;;;;;;;3.03;1.73;;;11.60;99.90;;;;;;5094471;28;20043;-71
2023/05/20 05:33:27;;;;;;;2.88;1.42;;;12.00;99.90;;;;;;5094562;28;20040;-70
2023/05/20 05:35:52;;;;;;;3.00;1.58;;;11.70;99.90;;;;;;5094406;28;20039;-72
2023/05/20 05:38:18;;;;;;;2.55;1.70;;;11.80;99.90;;;;;;5093136;28;20043;-70
2023/05/20 05:40:44;;;;;;;5.45;1.65;;;12.00;99.90;;;;;;5094533;28;20056;-71
2023/05/20 05:43:10;;;;;;;3.38;1.35;;;12.20;99.90;;;;;;5094295;28;20040;-71
2023/05/20 05:45:35;;;;;;;2.80;1.50;;;12.30;99.90;;;;;;5094726;28;20101;-71
2023/05/20 05:48:01;;;;;;;1.98;1.23;;;12.40;99.90;;;;;;5094417;28;20421;-70
2023/05/20 05:50:27;;;;;;;3.17;1.40;;;12.60;99.90;;;;;;5094522;28;20043;-70
2023/05/20 05:52:52;;;;;;;1.80;1.38;;;12.80;99.90;;;;;;5093912;28;20375;-70
2023/05/20 05:55:18;;;;;;;2.03;1.40;;;12.90;99.90;;;;;;5094016;28;20081;-71
2023/05/20 05:57:44;;;;;;;1.73;1.30;;;13.00;99.90;;;;;;5094119;28;20043;-71
2023/05/20 06:00:10;;;;;;;2.33;1.45;;;13.10;99.90;;;;;;5093312;28;20388;-71
2023/05/20 06:02:36;;;;;;;2.35;1.63;;;13.20;99.90;;;;;;5093970;28;20052;-70
2023/05/20 06:05:02;;;;;;;2.30;1.20;;;13.60;99.90;;;;;;5093817;28;20055;-71
2023/05/20 06:07:28;;;;;;;2.55;1.40;;;13.60;99.90;;;;;;5093892;28;20086;-71
2023/05/20 06:09:53;;;;;;;2.85;1.33;;;13.70;99.90;;;;;;5093865;28;20032;-70
2023/05/20 06:12:19;;;;;;;1.80;1.23;;;13.80;99.90;;;;;;5093868;28;20131;-71
2023/05/20 06:14:45;;;;;;;4.72;1.35;;;13.90;99.90;;;;;;5093758;28;20032;-71
2023/05/20 06:17:10;;;;;;;1.55;1.13;;;14.00;99.90;;;;;;5093511;28;20490;-71
2023/05/20 06:19:36;;;;;;;3.28;1.35;;;14.20;99.90;;;;;;5093775;28;20089;-71
2023/05/20 06:22:01;;;;;;;3.40;1.50;;;14.20;99.90;;;;;;5092335;28;20372;-71
2023/05/20 06:24:27;;;;;;;3.67;1.50;;;14.30;99.90;;;;;;5093771;28;20035;-70
2023/05/20 06:26:53;;;;;;;2.37;1.30;;;14.40;99.90;;;;;;5093781;28;20165;-70
2023/05/20 06:29:18;;;;;;;3.53;1.40;;;14.40;99.90;;;;;;5093333;28;20533;-71
2023/05/20 06:31:44;;;;;;;4.70;1.20;;;14.60;99.90;;;;;;5094135;28;20048;-70
2023/05/20 06:34:09;;;;;;;2.65;1.50;;;14.60;99.90;;;;;;5093655;28;20094;-70
2023/05/20 06:36:35;;;;;;;3.65;1.67;;;14.70;99.90;;;;;;5093734;28;20040;-71
2023/05/20 06:39:01;;;;;;;3.10;1.50;;;14.90;99.90;;;;;;5093577;28;20076;-71
2023/05/20 06:41:26;;;;;;;5.60;1.50;;;14.90;99.90;;;;;;5093761;28;20079;-71
2023/05/20 06:43:52;;;;;;;2.10;1.40;;;14.90;99.90;;;;;;5093545;28;20040;-72
2023/05/20 06:46:17;;;;;;;3.08;1.50;;;15.00;99.90;;;;;;5093259;28;20032;-70
2023/05/20 06:48:43;;;;;;;2.70;1.40;;;15.10;99.90;;;;;;5093973;28;20088;-72
2023/05/20 06:51:09;;;;;;;2.15;1.42;;;15.10;99.90;;;;;;5093325;28;20036;-71
2023/05/20 06:53:35;;;;;;;3.83;1.47;;;15.30;99.90;;;;;;5093817;28;20047;-71
2023/05/20 06:56:01;;;;;;;2.40;1.42;;;15.30;99.90;;;;;;5093468;28;20036;-72
2023/05/20 06:58:27;;;;;;;2.93;1.47;;;15.30;99.90;;;;;;5093317;28;20040;-71
2023/05/20 07:00:53;;;;;;;2.70;1.60;;;15.60;99.90;;;;;;5093293;28;20040;-72
2023/05/20 07:03:18;;;;;;;2.58;1.30;;;15.40;99.90;;;;;;5093353;28;20040;-71
2023/05/20 07:05:44;;;;;;;4.75;1.63;;;15.50;99.90;;;;;;5093110;28;20418;-71
2023/05/20 07:08:10;;;;;;;1.75;1.40;;;15.60;99.90;;;;;;5093337;28;20046;-72
2023/05/20 07:10:36;;;;;;;2.63;1.40;;;15.70;99.90;;;;;;5094219;28;20072;-72
2023/05/20 07:13:02;;;;;;;3.97;1.70;;;15.90;99.90;;;;;;5097230;28;20044;-72
2023/05/20 07:15:27;;;;;;;3.83;1.60;;;16.00;99.90;;;;;;5097005;28;20535;-72
2023/05/20 07:17:53;;;;;;;4.03;1.50;;;16.00;99.90;;;;;;5096994;28;20426;-72
2023/05/20 07:20:19;;;;;;;5.77;1.93;;;16.10;99.90;;;;;;5096332;28;20079;-73
2023/05/20 07:22:45;;;;;;;2.10;1.40;;;16.20;99.90;;;;;;5097128;28;20123;-72
2023/05/20 07:25:10;;;;;;;5.87;1.93;;;16.20;99.90;;;;;;5096865;28;20075;-71
2023/05/20 07:27:36;;;;;;;2.67;1.40;;;16.20;99.90;;;;;;5096892;28;20376;-72
2023/05/20 07:30:02;;;;;;;2.83;2.00;;;16.20;99.90;;;;;;5095449;28;20040;-73
2023/05/20 07:32:28;;;;;;;3.00;1.57;;;16.30;99.90;;;;;;5096754;28;20036;-71
2023/05/20 07:34:53;;;;;;;3.83;1.48;;;16.40;99.90;;;;;;5096795;28;20099;-71
2023/05/20 07:37:19;;;;;;;2.30;1.50;;;16.50;99.90;;;;;;5096664;28;20101;-73
2023/05/20 07:39:44;;;;;;;2.37;1.50;;;16.70;99.90;;;;;;5096597;28;20090;-71
2023/05/20 07:42:10;;;;;;;2.33;1.50;;;16.90;99.90;;;;;;5096880;28;20040;-72
2023/05/20 07:44:35;;;;;;;2.03;1.60;;;17.00;99.90;;;;;;5096490;28;20048;-72
2023/05/20 07:47:02;;;;;;;4.20;1.90;;;17.10;99.90;;;;;;5095307;28;20048;-73
2023/05/20 07:49:27;;;;;;;3.17;1.70;;;17.30;99.90;;;;;;5096167;28;20079;-70
2023/05/20 07:51:53;;;;;;;3.53;1.90;;;17.60;99.90;;;;;;5096441;28;20067;-69
2023/05/20 07:54:18;;;;;;;2.87;1.93;;;17.30;99.90;;;;;;5096555;28;20051;-70
2023/05/20 07:56:44;;;;;;;3.33;1.67;;;17.30;99.90;;;;;;5096411;28;20082;-72
2023/05/20 07:59:10;;;;;;;3.87;1.50;;;17.40;99.90;;;;;;5096252;28;20039;-73
2023/05/20 08:01:35;;;;;;;2.40;1.60;;;17.40;99.90;;;;;;5096662;28;20487;-72
2023/05/20 08:04:01;;;;;;;2.67;1.67;;;17.40;99.90;;;;;;5096560;28;20482;-71
2023/05/20 08:06:27;;;;;;;4.13;1.70;;;17.50;99.90;;;;;;5095752;28;20047;-72
2023/05/20 08:08:53;;;;;;;2.57;1.80;;;17.70;99.90;;;;;;5095867;28;20459;-72
2023/05/20 08:11:20;;;;;;;5.85;1.80;;;17.70;99.90;;;;;;5096019;28;20047;-71
2023/05/20 08:13:46;;;;;;;2.78;1.70;;;17.80;99.90;;;;;;5095927;28;20368;-73
2023/05/20 08:16:11;;;;;;;6.60;2.10;;;17.70;99.90;;;;;;5094614;28;20040;-71
2023/05/20 08:18:37;;;;;;;4.67;1.83;;;17.70;99.90;;;;;;5095757;28;20036;-70
2023/05/20 08:21:06;;;;;;;3.43;1.63;;;17.70;99.90;;;;;;5094521;28;20467;-71
2023/05/20 08:23:32;;;;;;;2.60;1.52;;;17.80;99.90;;;;;;5093790;28;20475;-72
2023/05/20 08:26:01;;;;;;;4.20;1.73;;;18.00;99.90;;;;;;5095783;28;20176;-70
2023/05/20 08:28:27;;;;;;;2.63;1.67;;;18.20;99.90;;;;;;5095600;28;20040;-71
2023/05/20 08:30:53;;;;;;;3.10;1.50;;;18.20;99.90;;;;;;5095752;28;20047;-71
2023/05/20 08:33:20;;;;;;;2.70;1.63;;;18.20;99.90;;;;;;5095978;28;20123;-70
2023/05/20 08:35:46;;;;;;;3.40;1.50;;;18.20;99.90;;;;;;5096004;28;20083;-71
2023/05/20 08:38:12;;;;;;;2.10;1.40;;;18.30;99.90;;;;;;5095404;28;20405;-70
2023/05/20 08:40:37;;;;;;;2.37;1.33;;;18.50;99.90;;;;;;5095494;28;20040;-72
2023/05/20 08:43:03;;;;;;;2.90;1.50;;;18.50;99.90;;;;;;5095311;28;20032;-72
2023/05/20 08:45:32;;;;;;;3.00;1.53;;;18.60;99.90;;;;;;5095312;28;20043;-72
2023/05/20 08:47:58;;;;;;;3.08;1.40;;;18.40;99.90;;;;;;5095458;28;20040;-71
2023/05/20 08:50:23;;;;;;;3.77;1.80;;;18.50;99.90;;;;;;5095229;28;20582;-71
2023/05/20 08:52:49;;;;;;;2.70;1.30;;;18.70;99.90;;;;;;5095203;28;20085;-71
2023/05/20 08:55:21;;;;;;;3.90;1.57;;;18.70;99.90;;;;;;5095040;28;20039;-72
2023/05/20 08:57:49;;;;;;;3.38;1.80;;;18.70;99.90;;;;;;5095023;28;20051;-72
2023/05/20 09:00:15;;;;;;;5.85;2.47;;;18.70;99.90;;;;;;5095445;28;20040;-72
2023/05/20 09:02:42;;;;;;;3.33;1.40;;;18.70;99.90;;;;;;5094971;28;20097;-71
2023/05/20 09:05:10;;;;;;;2.72;1.38;;;18.70;99.90;;;;;;5094777;28;20048;-72
2023/05/20 09:07:36;;;;;;;3.63;2.00;;;18.90;99.90;;;;;;5093706;28;20040;-72
2023/05/20 09:10:02;;;;;;;3.23;1.23;;;18.90;99.90;;;;;;5093725;28;20085;-72
2023/05/20 09:12:27;;;;;;;3.93;1.30;;;19.10;99.90;;;;;;5094726;28;20055;-71
2023/05/20 09:14:53;;;;;;;2.43;1.27;;;19.30;99.90;;;;;;5094735;28;20123;-71
2023/05/20 09:17:20;;;;;;;5.83;1.70;;;19.40;99.90;;;;;;5094732;28;20043;-71
2023/05/20 09:19:49;;;;;;;2.25;1.55;;;19.50;99.90;;;;;;5094763;28;20039;-73
2023/05/20 09:22:24;;;;;;;3.50;1.48;;;19.50;99.90;;;;;;5094853;28;20040;-72
2023/05/20 09:24:51;;;;;;;2.78;1.35;;;19.70;99.90;;;;;;5094740;28;20032;-71
2023/05/20 09:27:17;;;;;;;2.58;1.20;;;19.80;99.90;;;;;;5094541;28;20102;-70
2023/05/20 09:29:43;;;;;;;2.67;1.30;;;19.80;99.90;;;;;;5094909;28;20050;-71
2023/05/20 09:32:15;;;;;;;4.07;1.20;;;19.90;99.90;;;;;;5094363;28;20460;-71
2023/05/20 09:34:41;;;;;;;4.07;1.52;;;19.90;99.90;;;;;;5093564;28;20088;-70
2023/05/20 09:37:08;;;;;;;2.13;1.30;;;20.10;99.90;;;;;;5094287;28;20384;-71
2023/05/20 09:39:44;;;;;;;2.10;1.20;;;19.90;99.80;;;;;;5094225;28;20062;-71
2023/05/20 09:42:36;;;;;;;5.03;1.73;;;20.00;99.90;;;;;;5094335;28;20040;-71
2023/05/20 09:45:04;;;;;;;2.72;1.40;;;20.00;99.90;;;;;;5093240;28;20092;-71
2023/05/20 09:47:31;;;;;;;2.55;1.48;;;20.00;99.90;;;;;;5094182;28;20047;-72
2023/05/20 09:49:57;;;;;;;;;;;19.70;99.40;;;;;;5094438;28;20047;-71
2023/05/20 09:52:23;;;;;;;2.70;1.48;;;19.70;99.90;;;;;;5094386;28;19974;-70
2023/05/20 09:54:49;;;;;;;3.20;1.42;;;19.70;99.90;;;;;;5094469;28;20406;-70
2023/05/20 09:57:15;;;;;;;4.20;1.40;;;19.80;99.90;;;;;;5094031;28;20059;-70
2023/05/20 09:59:42;;;;;;;3.43;1.50;;;20.00;99.90;;;;;;5093913;28;20036;-72
2023/05/20 10:02:08;;;;;;;3.65;1.40;;;20.10;99.90;;;;;;5093995;28;20109;-70
2023/05/20 10:04:37;;;;;;;2.70;1.40;;;20.00;99.20;;;;;;5093609;28;20459;-71
2023/05/20 10:07:41;;;;;;;2.17;1.30;;;19.90;99.10;;;;;;5093991;28;20044;-71
2023/05/20 10:10:43;;;;;;;2.47;1.30;;;20.10;99.20;;;;;;5092859;28;20048;-72
2023/05/20 10:13:23;;;;;;;3.03;1.13;;;20.40;99.10;;;;;;5088557;28;20444;-72
2023/05/20 10:16:28;;;;;;;1.83;1.20;;;20.50;97.60;;;;;;5092989;28;20043;-70
2023/05/20 10:19:03;;;;;;;2.25;1.20;;;20.50;98.60;;;;;;5077894;28;20044;-72
2023/05/20 10:21:30;;;;;;;3.65;1.33;;;20.50;98.20;;;;;;5093615;28;20448;-71
2023/05/20 10:24:08;;;;;;;4.82;1.40;;;20.60;98.00;;;;;;5093688;28;20101;-71
2023/05/20 10:26:38;;;;;;;2.30;1.30;;;20.70;98.20;;;;;;5093662;28;20040;-71
2023/05/20 10:29:21;;;;;;;2.80;1.67;;;20.90;97.30;;;;;;5093536;28;20036;-72
2023/05/20 10:31:51;;;;;;;2.10;1.20;;;21.00;97.50;;;;;;5093452;28;20051;-71
2023/05/20 10:34:18;;;;;;;3.22;1.25;;;21.10;98.10;;;;;;5093543;28;20492;-71
2023/05/20 10:36:58;;;;;;;2.47;1.10;;;21.10;97.00;;;;;;5093337;28;20482;-71
2023/05/20 10:39:34;;;;;;;6.38;1.20;;;21.10;97.40;;;;;;5093735;28;20093;-72
2023/05/20 10:42:10;;;;;;;3.70;1.20;;;21.20;97.10;;;;;;5093689;28;20040;-71
2023/05/20 10:44:43;;;;;;;3.35;1.63;;;21.40;96.90;;;;;;5092646;28;20086;-71
2023/05/20 10:47:09;;;;;;;3.50;1.00;;;21.50;95.40;;;;;;5097208;28;20135;-71
2023/05/20 10:49:38;;;;;;;2.08;1.20;;;21.40;95.80;;;;;;5097569;28;20075;-71
2023/05/20 10:52:08;;;;;;;4.03;1.45;;;21.40;94.70;;;;;;5097499;28;20122;-71
2023/05/20 10:54:36;;;;;;;1.85;1.02;;;21.40;95.00;;;;;;5097592;28;20040;-72
2023/05/20 10:57:08;;;;;;;6.03;1.40;;;21.40;94.50;;;;;;5097293;28;20075;-70
2023/05/20 10:59:34;;;;;;;5.35;1.73;;;21.30;95.00;;;;;;5097299;28;20040;-71
2023/05/20 11:02:01;;;;;;;2.15;1.08;;;21.40;95.50;;;;;;5097272;28;20071;-72
2023/05/20 11:04:28;;;;;;;3.25;1.20;;;21.10;94.90;;;;;;5097050;28;20039;-70
2023/05/20 11:06:54;;;;;;;2.08;1.05;;;20.90;95.50;;;;;;5097172;28;20491;-71
2023/05/20 11:09:21;;;;;;;2.92;1.20;;;20.70;95.60;;;;;;5097200;28;20043;-71
2023/05/20 11:11:47;;;;;;;6.55;1.52;;;20.70;96.00;;;;;;5097096;28;20044;-71
2023/05/20 11:14:13;;;;;;;1.80;1.15;;;20.70;96.30;;;;;;5097134;28;20047;-71
2023/05/20 11:16:40;;;;;;;1.70;1.20;;;20.60;96.20;;;;;;5097061;28;20051;-71
2023/05/20 11:19:07;;;;;;;2.03;1.17;;;20.60;96.30;;;;;;5096889;28;20077;-71
2023/05/20 11:21:33;;;;;;;3.05;1.48;;;20.30;95.80;;;;;;5097049;28;20040;-71
2023/05/20 11:23:58;;;;;;;3.43;1.13;;;20.50;96.50;;;;;;5096944;28;20486;-72
2023/05/20 11:26:24;;;;;;;4.53;1.30;;;20.70;96.60;;;;;;5096894;28;20032;-71
2023/05/20 11:28:50;;;;;;;2.43;1.30;;;20.90;96.80;;;;;;5097096;28;20514;-70
2023/05/20 11:31:17;;;;;;;3.13;1.30;;;20.90;96.40;;;;;;5096798;28;20075;-71
2023/05/20 11:33:42;;;;;;;;;;;21.00;96.30;;;;;;5096183;28;20323;-70
2023/05/20 11:36:09;;;;;;;2.42;1.10;;;20.80;96.00;;;;;;5096719;28;20037;-71
2023/05/20 11:38:35;;;;;;;2.30;1.35;;;20.90;95.50;;;;;;5096651;28;20043;-71
2023/05/20 11:41:01;;;;;;;3.47;1.40;;;20.90;95.70;;;;;;5096520;28;20044;-70
2023/05/20 11:43:26;;;;;;;2.87;1.20;;;20.90;96.00;;;;;;5096623;28;20043;-71
2023/05/20 11:45:54;;;;;;;5.57;1.37;;;20.90;96.30;;;;;;5096565;28;20439;-72
2023/05/20 11:48:20;;;;;;;2.75;1.30;;;20.70;95.70;;;;;;5095681;28;20048;-71
2023/05/20 11:50:47;;;;;;;;;;;20.70;97.00;;;;;;5096831;28;20463;-71
2023/05/20 11:53:17;;;;;;;4.53;1.13;;;21.00;96.00;;;;;;5096526;28;19920;-71
2023/05/20 11:55:49;;;;;;;2.65;1.25;;;21.30;95.50;;;;;;5096034;28;20050;-72
2023/05/20 11:58:18;;;;;;;2.25;1.13;;;21.50;95.60;;;;;;5093674;28;20040;-71
2023/05/20 12:00:44;;;;;;;4.57;1.27;;;21.30;95.40;;;;;;5096253;28;20118;-71
2023/05/20 12:03:10;;;;;;;2.37;1.17;;;21.10;94.90;;;;;;5095938;28;20497;-71
2023/05/20 12:05:36;;;;;;;4.03;1.10;;;21.10;95.20;;;;;;5096052;28;20048;-70
2023/05/20 12:08:02;;;;;;;2.10;1.20;;;21.20;94.90;;;;;;5096365;28;20072;-69
2023/05/20 12:10:28;;;;;;;2.63;1.15;;;21.30;94.50;;;;;;5096542;28;20036;-71
2023/05/20 12:12:54;;;;;;;3.28;1.23;;;21.40;95.10;;;;;;5096038;28;20541;-71
2023/05/20 12:15:20;;;;;;;4.23;1.33;;;21.60;95.10;;;;;;5095939;28;20048;-71
2023/05/20 12:17:50;;;;;;;3.20;1.10;;;22.00;95.00;;;;;;5095921;28;20080;-71
2023/05/20 12:20:17;;;;;;;6.13;1.48;;;22.30;94.30;;;;;;5095962;28;20046;-71
2023/05/20 12:22:44;;;;;;;5.65;1.20;;;22.40;93.30;;;;;;5095641;28;20036;-71
2023/05/20 12:25:15;;;;;;;2.63;1.25;;;22.50;94.10;;;;;;5095722;28;20036;-71
2023/05/20 12:27:41;;;;;;;2.03;1.05;;;22.60;93.30;;;;;;5095878;28;20040;-72
2023/05/20 12:30:08;;;;;;;2.50;1.15;;;22.90;94.00;;;;;;5095670;28;20040;-72
2023/05/20 12:32:35;;;;;;;2.35;1.10;;;22.70;92.90;;;;;;5095610;28;20086;-71
2023/05/20 12:35:01;;;;;;;3.53;1.23;;;22.60;93.30;;;;;;5095641;28;20051;-71
2023/05/20 12:37:27;;;;;;;4.87;1.33;;;22.60;93.60;;;;;;5094245;28;20068;-71
2023/05/20 12:39:52;;;;;;;2.50;1.00;;;22.60;94.00;;;;;;5095366;28;20036;-71
2023/05/20 12:42:18;;;;;;;2.50;1.10;;;22.60;93.50;;;;;;5095392;28;20119;-71
2023/05/20 12:44:43;;;;;;;1.97;1.17;;;22.40;93.00;;;;;;5095377;28;20062;-70
2023/05/20 12:47:09;;;;;;;1.87;1.07;;;22.30;93.00;;;;;;5095339;28;20066;-71